Time;durP1;ratioP1;P1;durP2;ratioP2;P2;SDS_P1;SDS_P2;PMS_P1;PMS_P2;Temp;Humidity;BMP_temperature;BMP_pressure;BME280_temperature;BME280_humidity;BME280_pressure;Samples;Min_cycle;Max_cycle;Signal;HPM_P1;HPM_P2
2023/10/04 00:00:42;;;;;;;7.78;1.08;;;;;;;16.24;88.79;101140.19;5029051;28;20100;-66
2023/10/04 00:03:07;;;;;;;5.63;1.33;;;;;;;16.30;88.13;101137.13;5030462;28;20041;-66
2023/10/04 00:05:34;;;;;;;2.42;0.65;;;;;;;16.28;88.60;101138.25;5028599;28;20568;-66
2023/10/04 00:07:59;;;;;;;1.08;0.35;;;;;;;16.31;87.99;101131.28;5028214;28;20061;-66
2023/10/04 00:10:25;;;;;;;1.35;0.57;;;;;;;16.28;87.81;101135.56;5028253;28;20072;-66
2023/10/04 00:12:52;;;;;;;3.35;0.93;;;;;;;16.22;88.16;101142.50;5030484;28;20037;-66
2023/10/04 00:15:20;;;;;;;1.27;0.80;;;;;;;16.27;87.95;101144.88;5027212;28;20139;-65
2023/10/04 00:17:46;;;;;;;1.27;0.63;;;;;;;16.32;87.83;101154.59;5030488;28;20034;-66
2023/10/04 00:20:14;;;;;;;0.75;0.45;;;;;;;16.27;88.38;101144.09;5029795;28;20029;-66
2023/10/04 00:22:40;;;;;;;2.00;0.63;;;;;;;16.23;88.25;101141.34;5027515;28;20049;-66
2023/10/04 00:25:11;;;;;;;1.73;0.80;;;;;;;16.32;87.84;101142.97;5030025;28;20033;-66
2023/10/04 00:27:37;;;;;;;1.05;0.60;;;;;;;16.34;87.58;101148.78;5028723;28;20029;-65
2023/10/04 00:30:05;;;;;;;2.42;0.50;;;;;;;16.30;87.96;101145.28;5030296;28;20505;-65
2023/10/04 00:32:31;;;;;;;3.45;0.45;;;;;;;16.28;87.84;101153.78;5026567;28;20038;-66
2023/10/04 00:34:56;;;;;;;2.45;0.73;;;;;;;16.23;87.97;101157.66;5012589;28;20382;-66
2023/10/04 00:37:24;;;;;;;1.60;0.70;;;;;;;16.23;87.98;101156.88;5027797;28;20490;-66
2023/10/04 00:39:49;;;;;;;3.38;0.50;;;;;;;16.25;88.24;101163.50;5013468;28;20061;-66
2023/10/04 00:42:17;;;;;;;1.00;0.63;;;;;;;16.27;88.11;101179.44;5029203;28;20060;-66
2023/10/04 00:44:43;;;;;;;0.57;0.52;;;;;;;16.28;88.08;101168.16;5029601;28;20025;-66
2023/10/04 00:47:09;;;;;;;2.38;0.45;;;;;;;16.30;87.14;101172.47;5028656;28;20037;-66
2023/10/04 00:49:35;;;;;;;3.75;0.75;;;;;;;16.26;87.79;101177.84;5028889;28;20086;-66
2023/10/04 00:52:02;;;;;;;4.63;0.90;;;;;;;16.27;87.80;101177.50;5028355;28;20125;-66
2023/10/04 00:54:29;;;;;;;1.58;0.65;;;;;;;16.39;87.82;101172.88;5028681;28;20034;-66
2023/10/04 00:56:55;;;;;;;3.72;0.95;;;;;;;16.41;87.12;101173.28;5029543;28;20390;-66
2023/10/04 00:59:21;;;;;;;3.53;0.55;;;;;;;16.34;87.23;101176.72;5027493;28;20053;-65
2023/10/04 01:01:48;;;;;;;1.15;0.65;;;;;;;16.35;87.43;101189.19;5028871;28;20104;-66
2023/10/04 01:04:14;;;;;;;2.47;0.50;;;;;;;16.26;87.68;101173.19;5028086;28;20489;-65
2023/10/04 01:06:41;;;;;;;3.83;0.90;;;;;;;16.33;87.21;101177.13;5022165;28;20037;-66
2023/10/04 01:09:08;;;;;;;0.50;0.50;;;;;;;16.30;87.06;101175.94;5029933;28;20065;-66
2023/10/04 01:11:35;;;;;;;1.25;0.70;;;;;;;16.27;87.35;101182.94;5012135;28;20428;-66
2023/10/04 01:14:18;;;;;;;1.60;0.50;;;;;;;16.27;87.26;101188.38;5028705;28;20029;-66
2023/10/04 01:16:44;;;;;;;0.90;0.60;;;;;;;16.20;87.81;101182.88;5026333;28;20044;-66
2023/10/04 01:19:14;;;;;;;0.98;0.60;;;;;;;16.23;87.34;101184.84;5025226;28;20042;-66
2023/10/04 01:21:40;;;;;;;0.80;0.55;;;;;;;16.16;87.67;101175.88;5028604;28;20045;-66
2023/10/04 01:24:09;;;;;;;3.85;0.70;;;;;;;16.02;88.30;101176.56;5024725;28;20025;-66
2023/10/04 01:26:36;;;;;;;0.50;0.30;;;;;;;16.10;88.41;101178.16;5023730;28;20371;-66
2023/10/04 01:29:11;;;;;;;2.40;1.00;;;;;;;16.23;87.77;101184.06;5029175;28;20525;-66
2023/10/04 01:31:37;;;;;;;3.33;0.90;;;;;;;16.21;87.90;101189.88;5025324;28;20041;-66
2023/10/04 01:34:03;;;;;;;4.65;0.60;;;;;;;16.15;87.66;101188.69;5028165;28;20025;-66
2023/10/04 01:36:32;;;;;;;2.15;0.52;;;;;;;16.21;87.60;101184.44;5027469;28;20521;-66
2023/10/04 01:38:58;;;;;;;1.27;0.50;;;;;;;16.26;87.42;101183.28;5025915;28;20030;-67
2023/10/04 01:41:25;;;;;;;1.48;0.43;;;;;;;16.28;87.26;101200.78;5026962;28;20033;-67
2023/10/04 01:43:53;;;;;;;3.85;0.50;;;;;;;16.37;86.69;101196.94;5029370;28;20553;-66
2023/10/04 01:46:19;;;;;;;0.50;0.40;;;;;;;16.15;87.39;101188.69;5029523;28;20027;-67
2023/10/04 01:48:45;;;;;;;6.68;0.93;;;;;;;16.11;87.72;101185.16;5030694;28;20512;-66
2023/10/04 01:51:12;;;;;;;2.33;0.82;;;;;;;16.15;87.80;101188.69;5034741;28;20017;-66
2023/10/04 01:53:38;;;;;;;0.65;0.40;;;;;;;16.16;87.73;101201.09;5016467;28;20033;-66
2023/10/04 01:56:06;;;;;;;4.75;0.80;;;;;;;16.16;87.41;101198.38;5034497;28;20060;-66
2023/10/04 01:58:32;;;;;;;0.60;0.50;;;;;;;16.08;88.01;101180.50;5028301;28;20029;-65
2023/10/04 02:00:57;;;;;;;2.53;0.57;;;;;;;16.11;88.02;101190.59;5027679;28;20509;-66
2023/10/04 02:03:23;;;;;;;4.30;0.43;;;;;;;16.07;88.17;101192.50;5031802;28;20044;-66
2023/10/04 02:05:50;;;;;;;3.50;0.52;;;;;;;16.10;87.97;101183.59;5032997;28;20446;-66
2023/10/04 02:08:16;;;;;;;1.00;0.60;;;;;;;16.15;87.84;101188.69;5014802;28;20030;-66
2023/10/04 02:10:41;;;;;;;0.65;0.50;;;;;;;16.12;88.05;101188.66;5030813;28;20090;-66
2023/10/04 02:13:08;;;;;;;1.17;0.47;;;;;;;16.09;88.33;101176.59;5031115;28;20032;-66
2023/10/04 02:15:35;;;;;;;0.70;0.50;;;;;;;16.06;88.25;101185.53;5032096;28;20553;-66
2023/10/04 02:18:01;;;;;;;3.03;0.50;;;;;;;16.13;88.25;101185.56;5031193;28;20037;-66
2023/10/04 02:20:28;;;;;;;1.33;0.55;;;;;;;16.11;87.92;101179.72;5015004;28;20021;-66
2023/10/04 02:23:00;;;;;;;1.55;0.80;;;;;;;16.10;88.14;101185.53;5029047;28;20045;-67
2023/10/04 02:25:26;;;;;;;0.38;0.38;;;;;;;16.00;88.31;101191.69;5029437;28;20061;-66
2023/10/04 02:27:52;;;;;;;4.25;0.65;;;;;;;16.01;88.88;101187.78;5025577;28;20119;-66
2023/10/04 02:30:23;;;;;;;2.25;0.73;;;;;;;16.03;88.98;101193.63;5028702;28;20492;-66
2023/10/04 02:32:51;;;;;;;0.52;0.47;;;;;;;16.11;88.65;101192.53;5027002;28;20052;-67
2023/10/04 02:35:27;;;;;;;0.63;0.60;;;;;;;16.17;88.27;101191.78;5027516;28;20033;-66
2023/10/04 02:37:59;;;;;;;4.35;0.68;;;;;;;16.09;88.51;101195.63;5025979;28;20485;-66
2023/10/04 02:40:27;;;;;;;4.68;1.02;;;;;;;16.07;88.98;101192.50;5028106;28;20124;-66
2023/10/04 02:42:57;;;;;;;3.38;0.80;;;;;;;16.08;88.93;101204.16;5045430;28;20753;-66
2023/10/04 02:45:24;;;;;;;2.10;0.60;;;;;;;16.06;89.05;101209.19;5029056;28;20092;-67
2023/10/04 02:47:52;;;;;;;1.40;0.82;;;;;;;16.06;88.74;101204.53;4998471;28;20040;-66
2023/10/04 02:50:19;;;;;;;1.50;0.63;;;;;;;15.94;89.10;101213.00;5024672;28;20032;-66
2023/10/04 02:52:46;;;;;;;2.05;0.70;;;;;;;15.97;89.69;101197.84;5025206;28;20116;-66
2023/10/04 02:55:15;;;;;;;1.35;0.55;;;;;;;15.94;89.56;101204.84;5015929;28;20033;-66
2023/10/04 02:57:42;;;;;;;1.67;0.57;;;;;;;16.02;89.31;101208.38;5013283;28;20072;-66
2023/10/04 03:00:12;;;;;;;2.70;0.70;;;;;;;16.01;89.56;101214.97;5031007;28;20037;-66
2023/10/04 03:02:38;;;;;;;1.33;0.90;;;;;;;16.02;89.76;101214.59;5025777;28;20525;-66
2023/10/04 03:05:06;;;;;;;3.30;0.73;;;;;;;16.09;89.45;101209.22;5027223;28;20045;-67
2023/10/04 03:07:33;;;;;;;2.55;0.73;;;;;;;16.13;89.32;101217.38;5024418;28;20128;-66
2023/10/04 03:09:59;;;;;;;1.25;0.40;;;;;;;16.09;89.34;101214.66;5007295;28;20663;-67
2023/10/04 03:12:24;;;;;;;2.70;0.90;;;;;;;16.09;89.68;101211.13;5030078;28;20125;-66
2023/10/04 03:14:50;;;;;;;1.10;0.82;;;;;;;16.13;89.29;101211.94;5022329;28;20038;-66
2023/10/04 03:17:16;;;;;;;1.13;1.02;;;;;;;16.12;89.32;101197.56;5029760;28;20025;-66
2023/10/04 03:19:47;;;;;;;2.83;1.00;;;;;;;16.10;89.04;101194.44;5030712;28;20544;-66
2023/10/04 03:22:19;;;;;;;3.97;0.70;;;;;;;16.16;89.00;101203.06;5030810;28;20421;-66
2023/10/04 03:24:45;;;;;;;0.90;0.50;;;;;;;16.18;88.88;101204.22;5029701;28;20040;-67
2023/10/04 03:27:12;;;;;;;2.33;0.80;;;;;;;16.18;88.88;101200.75;5024738;28;20080;-66
2023/10/04 03:29:39;;;;;;;2.70;0.60;;;;;;;16.07;88.88;101189.78;5019356;28;20033;-66
2023/10/04 03:32:06;;;;;;;4.10;0.88;;;;;;;16.02;89.27;101202.94;5030420;28;20036;-66
2023/10/04 03:34:34;;;;;;;3.83;0.65;;;;;;;16.02;89.17;101206.47;5028421;28;20025;-66
2023/10/04 03:37:08;;;;;;;2.60;0.40;;;;;;;16.05;89.21;101204.91;5029546;28;20508;-66
2023/10/04 03:39:40;;;;;;;1.95;0.65;;;;;;;16.01;89.23;101198.66;5025757;28;20437;-66
2023/10/04 03:42:05;;;;;;;;;;;;;;;16.05;89.16;101213.84;5043419;28;20607;-65
2023/10/04 03:44:31;;;;;;;1.95;0.80;;;;;;;16.02;89.04;101205.66;5028452;28;19963;-66
2023/10/04 03:46:58;;;;;;;2.20;1.00;;;;;;;15.95;89.18;101206.38;5027980;28;20029;-66
2023/10/04 03:49:25;;;;;;;1.35;0.55;;;;;;;15.93;89.58;101218.81;5029053;28;20030;-66
2023/10/04 03:51:53;;;;;;;2.38;0.88;;;;;;;15.92;89.40;101215.31;5029276;28;20053;-66
2023/10/04 03:54:20;;;;;;;1.98;0.55;;;;;;;15.91;89.54;101229.28;5013822;28;20398;-66
2023/10/04 03:56:46;;;;;;;3.08;0.95;;;;;;;15.90;89.57;101225.75;5029360;28;20032;-66
2023/10/04 03:59:13;;;;;;;3.92;0.77;;;;;;;15.90;89.35;101223.03;5029295;28;20474;-66
2023/10/04 04:01:38;;;;;;;2.35;0.38;;;;;;;15.94;89.11;101218.41;5026440;28;20116;-66
2023/10/04 04:04:06;;;;;;;2.55;0.60;;;;;;;15.94;88.79;101221.13;5024327;28;20033;-66
2023/10/04 04:06:32;;;;;;;2.13;0.68;;;;;;;15.85;89.46;101226.09;5025279;28;20036;-65
2023/10/04 04:09:03;;;;;;;3.45;0.55;;;;;;;15.86;89.55;101224.16;5029160;28;20090;-65
2023/10/04 04:11:28;;;;;;;2.80;0.75;;;;;;;15.84;89.22;101237.34;5030822;28;20046;-65
2023/10/04 04:13:57;;;;;;;3.20;0.47;;;;;;;15.80;89.51;101239.25;5010334;28;20052;-66
2023/10/04 04:16:22;;;;;;;1.60;0.40;;;;;;;15.81;89.65;101238.91;5027002;28;20032;-65
2023/10/04 04:18:49;;;;;;;4.20;0.75;;;;;;;15.81;89.69;101230.75;5027124;28;20033;-65
2023/10/04 04:21:15;;;;;;;5.50;0.50;;;;;;;15.75;89.81;101243.09;5010447;28;20030;-64
2023/10/04 04:23:40;;;;;;;3.47;0.50;;;;;;;15.68;90.03;101234.13;5012504;28;20036;-65
2023/10/04 04:26:07;;;;;;;0.68;0.40;;;;;;;15.62;90.32;101236.38;5013403;28;20037;-65
2023/10/04 04:28:35;;;;;;;5.60;0.70;;;;;;;15.64;90.46;101244.94;5020816;28;20398;-66
2023/10/04 04:31:09;;;;;;;1.27;0.55;;;;;;;15.64;90.49;101255.78;5028988;28;20025;-65
2023/10/04 04:33:34;;;;;;;5.03;1.02;;;;;;;15.68;90.70;101262.03;5009849;28;20030;-66
2023/10/04 04:36:09;;;;;;;3.47;0.60;;;;;;;15.73;90.02;101264.44;5025751;28;20037;-66
2023/10/04 04:38:38;;;;;;;2.40;0.77;;;;;;;15.75;90.46;101250.47;5025089;28;20025;-66
2023/10/04 04:41:12;;;;;;;1.98;0.50;;;;;;;15.70;90.33;101258.97;5026637;28;20022;-66
2023/10/04 04:43:38;;;;;;;3.30;0.80;;;;;;;15.73;90.36;101259.00;5027238;28;20036;-66
2023/10/04 04:46:12;;;;;;;4.25;0.47;;;;;;;15.77;90.29;101273.38;5005346;28;20238;-66
2023/10/04 04:48:41;;;;;;;0.70;0.28;;;;;;;15.78;89.93;101266.78;5027536;28;20091;-66
2023/10/04 04:51:15;;;;;;;3.40;0.60;;;;;;;15.79;89.81;101265.66;5024534;28;20037;-66
2023/10/04 04:53:52;;;;;;;4.72;0.82;;;;;;;15.83;89.60;101276.53;5025141;28;20131;-66
2023/10/04 04:56:23;;;;;;;3.85;0.70;;;;;;;15.74;89.85;101274.13;5010882;28;20025;-66
2023/10/04 04:58:56;;;;;;;3.58;0.47;;;;;;;15.79;89.79;101279.22;5026907;28;20038;-65
2023/10/04 05:01:23;;;;;;;1.42;0.40;;;;;;;15.79;89.83;101281.16;5027806;28;20402;-65
2023/10/04 05:03:51;;;;;;;4.40;0.95;;;;;;;15.75;89.91;101289.28;5023480;28;20112;-66
2023/10/04 05:06:22;;;;;;;1.77;0.57;;;;;;;15.69;90.75;101293.47;5025610;28;20624;-66
2023/10/04 05:08:57;;;;;;;2.53;0.90;;;;;;;15.61;90.78;101289.13;5024673;28;20033;-65
2023/10/04 05:11:26;;;;;;;1.65;0.90;;;;;;;15.61;91.41;101299.19;5023137;28;20141;-65
2023/10/04 05:13:54;;;;;;;1.98;0.50;;;;;;;15.64;91.27;101290.31;5020262;28;20017;-66
2023/10/04 05:16:20;;;;;;;0.85;0.38;;;;;;;15.71;91.02;101295.81;5026789;28;20029;-66
2023/10/04 05:18:46;;;;;;;2.70;0.88;;;;;;;15.64;90.67;101287.63;5026399;28;20029;-65
2023/10/04 05:21:12;;;;;;;1.45;0.50;;;;;;;15.70;90.82;101292.31;5026113;28;20029;-65
2023/10/04 05:23:38;;;;;;;7.40;0.60;;;;;;;15.75;90.31;101307.50;5026290;28;20041;-66
2023/10/04 05:26:04;;;;;;;0.88;0.43;;;;;;;15.73;90.44;101305.16;5028950;28;20128;-66
2023/10/04 05:28:29;;;;;;;2.30;0.47;;;;;;;15.77;90.35;101310.63;5024148;28;20120;-65
2023/10/04 05:30:55;;;;;;;0.63;0.47;;;;;;;15.81;90.40;101295.94;5025573;28;20426;-66
2023/10/04 05:33:21;;;;;;;1.23;0.60;;;;;;;15.69;90.18;101292.69;5026244;28;20025;-66
2023/10/04 05:35:52;;;;;;;2.72;0.88;;;;;;;15.68;90.63;101296.59;5020222;28;20075;-66
2023/10/04 05:38:18;;;;;;;1.38;0.80;;;;;;;15.73;90.44;101296.22;5014275;28;20032;-64
2023/10/04 05:40:46;;;;;;;0.40;0.40;;;;;;;15.68;90.81;101310.16;5033944;28;20029;-66
2023/10/04 05:43:12;;;;;;;3.88;0.82;;;;;;;15.72;90.66;101309.03;4999643;28;20033;-66
2023/10/04 05:45:39;;;;;;;1.45;0.70;;;;;;;15.74;90.55;101311.34;5021863;28;20120;-66
2023/10/04 05:48:05;;;;;;;1.95;0.50;;;;;;;15.77;90.79;101310.63;5020464;28;20033;-66
2023/10/04 05:50:33;;;;;;;3.08;0.60;;;;;;;15.75;90.86;101312.94;5022201;28;20041;-66
2023/10/04 05:53:07;;;;;;;2.25;0.70;;;;;;;15.70;91.30;101316.00;5028462;28;20163;-66
2023/10/04 05:55:34;;;;;;;1.67;0.90;;;;;;;15.77;90.97;101313.34;5025313;28;20044;-66
2023/10/04 05:58:00;;;;;;;0.57;0.45;;;;;;;15.72;90.99;101325.31;5027228;28;20703;-65
2023/10/04 06:00:28;;;;;;;0.90;0.60;;;;;;;15.75;90.94;101326.50;5026113;28;20036;-65
2023/10/04 06:03:00;;;;;;;2.70;0.90;;;;;;;15.75;90.95;101326.50;5027533;28;20490;-66
2023/10/04 06:05:28;;;;;;;1.67;0.60;;;;;;;15.77;90.93;101333.16;5026597;28;20071;-66
2023/10/04 06:07:55;;;;;;;5.03;0.60;;;;;;;15.77;91.43;101335.84;5021797;28;20111;-66
2023/10/04 06:10:23;;;;;;;0.50;0.50;;;;;;;15.81;91.44;101339.41;5028641;28;20029;-66
2023/10/04 06:12:51;;;;;;;3.92;0.85;;;;;;;15.86;91.01;101330.09;5029823;28;20060;-66
2023/10/04 06:15:17;;;;;;;3.90;0.75;;;;;;;15.85;90.63;101334.00;5026377;28;20033;-66
2023/10/04 06:17:50;;;;;;;2.30;0.82;;;;;;;15.79;91.08;101336.28;5027244;28;20528;-66
2023/10/04 06:20:36;;;;;;;1.95;0.70;;;;;;;15.84;91.14;101338.63;5026071;28;20043;-66
2023/10/04 06:23:09;;;;;;;0.77;0.47;;;;;;;15.79;90.83;101347.13;5028776;28;20037;-65
2023/10/04 06:25:39;;;;;;;4.43;0.75;;;;;;;15.82;91.21;101351.81;5028575;28;20042;-66
2023/10/04 06:28:04;;;;;;;4.57;1.10;;;;;;;15.87;90.86;101359.59;5025715;28;20045;-65
2023/10/04 06:30:32;;;;;;;5.97;0.55;;;;;;;15.89;91.17;101354.59;5025900;28;20033;-65
2023/10/04 06:33:00;;;;;;;5.40;0.80;;;;;;;15.93;91.08;101362.78;5028573;28;20029;-66
2023/10/04 06:35:27;;;;;;;2.53;0.52;;;;;;;15.97;91.00;101350.78;5030828;28;20099;-66
2023/10/04 06:37:53;;;;;;;1.25;0.52;;;;;;;16.07;90.45;101362.91;5034156;28;20141;-66
2023/10/04 06:40:20;;;;;;;1.52;0.52;;;;;;;16.11;90.38;101369.94;5028926;28;20037;-66
2023/10/04 06:42:48;;;;;;;5.43;0.90;;;;;;;16.16;90.34;101366.88;5032567;28;20548;-66
2023/10/04 06:45:20;;;;;;;2.85;0.85;;;;;;;16.16;90.67;101374.28;5032021;28;20026;-66
2023/10/04 06:47:50;;;;;;;4.13;0.70;;;;;;;16.31;89.72;101380.59;5030154;28;20615;-66
2023/10/04 06:50:23;;;;;;;0.85;0.55;;;;;;;16.38;89.08;101394.25;5028719;28;20049;-66
2023/10/04 06:52:51;;;;;;;3.30;1.05;;;;;;;16.27;89.42;101392.25;5029458;28;20104;-66
2023/10/04 06:55:21;;;;;;;0.98;0.75;;;;;;;16.36;89.20;101393.84;5033413;28;20033;-66
2023/10/04 06:57:47;;;;;;;1.07;0.47;;;;;;;16.31;89.46;101388.75;5031474;28;20026;-66
2023/10/04 07:00:21;;;;;;;1.73;0.75;;;;;;;16.38;89.31;101400.47;5028356;28;20280;-66
2023/10/04 07:02:54;;;;;;;2.75;0.73;;;;;;;16.43;88.91;101397.44;5030744;28;20108;-66
2023/10/04 07:05:24;;;;;;;1.95;0.60;;;;;;;16.48;88.99;101401.72;5028976;28;20063;-66
2023/10/04 07:07:54;;;;;;;1.07;0.50;;;;;;;16.51;88.87;101398.31;5031534;28;20064;-65
2023/10/04 07:10:21;;;;;;;1.93;0.67;;;;;;;16.51;89.16;101407.22;5028240;28;20536;-66
2023/10/04 07:12:51;;;;;;;2.97;0.65;;;;;;;16.62;88.61;101402.66;5029389;28;20980;-66
2023/10/04 07:15:18;;;;;;;1.17;0.77;;;;;;;16.77;88.34;101398.88;5030954;28;20037;-65
2023/10/04 07:17:44;;;;;;;3.38;0.77;;;;;;;16.82;88.45;101419.53;5026269;28;20045;-65
2023/10/04 07:20:15;;;;;;;3.20;1.20;;;;;;;16.90;87.97;101408.31;5026408;28;20108;-65
2023/10/04 07:22:51;;;;;;;2.70;0.73;;;;;;;16.98;87.92;101428.19;5030193;28;20064;-66
2023/10/04 07:25:17;;;;;;;1.77;0.75;;;;;;;17.07;87.37;101428.66;5024417;28;20048;-66
2023/10/04 07:27:44;;;;;;;0.47;0.45;;;;;;;17.04;86.74;101432.09;5032139;28;20053;-66
2023/10/04 07:30:14;;;;;;;0.95;0.40;;;;;;;17.12;87.06;101436.44;5028934;28;20087;-66
2023/10/04 07:32:44;;;;;;;9.70;0.98;;;;;;;17.17;86.45;101444.25;5029236;28;20060;-66
2023/10/04 07:35:23;;;;;;;1.80;0.50;;;;;;;17.23;85.93;101440.00;5006911;28;20091;-66
2023/10/04 07:37:48;;;;;;;3.20;0.80;;;;;;;17.38;85.45;101443.59;5029736;28;20410;-66
2023/10/04 07:40:17;;;;;;;2.45;1.08;;;;;;;17.46;85.09;101453.38;5029283;28;20037;-66
2023/10/04 07:42:48;;;;;;;4.25;1.13;;;;;;;17.58;84.71;101450.31;5023332;28;20406;-66
2023/10/04 07:45:16;;;;;;;1.55;0.65;;;;;;;17.69;84.01;101465.56;5030057;28;20116;-66
2023/10/04 07:47:43;;;;;;;5.55;0.65;;;;;;;17.78;83.26;101457.03;5026143;28;20033;-66
2023/10/04 07:50:10;;;;;;;0.80;0.40;;;;;;;17.87;82.80;101452.00;5030699;28;20061;-66
2023/10/04 07:52:41;;;;;;;7.82;0.70;;;;;;;17.91;82.61;101453.59;5027379;28;20406;-66
2023/10/04 07:55:14;;;;;;;7.70;1.80;;;;;;;17.97;82.51;101454.78;5025901;28;20040;-66
2023/10/04 07:57:50;;;;;;;2.70;1.13;;;;;;;18.21;81.66;101463.41;5029459;28;20036;-65
2023/10/04 08:00:17;;;;;;;0.75;0.30;;;;;;;18.28;80.61;101456.03;5032263;28;20109;-66
2023/10/04 08:02:49;;;;;;;3.58;0.47;;;;;;;18.20;80.18;101478.19;5030311;28;20032;-66
2023/10/04 08:05:24;;;;;;;1.27;0.40;;;;;;;18.30;80.21;101466.53;5028881;28;20478;-67
2023/10/04 08:08:03;;;;;;;1.92;0.63;;;;;;;18.35;80.00;101471.63;5027450;28;20159;-66
2023/10/04 08:10:30;;;;;;;1.27;0.38;;;;;;;18.35;79.71;101475.13;5022688;28;20045;-66
2023/10/04 08:12:59;;;;;;;2.08;0.80;;;;;;;18.33;79.45;101474.72;5029521;28;20035;-66
2023/10/04 08:15:27;;;;;;;3.03;0.52;;;;;;;18.40;79.67;101480.22;5028387;28;20452;-66
2023/10/04 08:17:58;;;;;;;3.00;0.85;;;;;;;18.41;79.57;101479.03;5029156;28;20021;-68
2023/10/04 08:20:29;;;;;;;3.78;0.60;;;;;;;18.53;79.32;101477.91;5026609;28;20512;-66
2023/10/04 08:22:59;;;;;;;3.08;0.57;;;;;;;18.54;78.73;101479.47;5027063;28;20041;-66
2023/10/04 08:25:27;;;;;;;2.40;0.88;;;;;;;18.60;78.84;101480.66;5025748;28;20083;-65
2023/10/04 08:27:53;;;;;;;2.08;0.40;;;;;;;18.43;79.45;101495.03;5029032;28;20080;-66
2023/10/04 08:30:19;;;;;;;5.07;0.65;;;;;;;18.64;78.82;101500.53;5027858;28;20485;-65
2023/10/04 08:32:46;;;;;;;0.63;0.40;;;;;;;18.66;78.64;101488.06;5029854;28;20049;-66
2023/10/04 08:35:24;;;;;;;1.77;0.77;;;;;;;18.72;78.38;101491.16;5022481;28;20036;-67
2023/10/04 08:37:57;;;;;;;2.70;1.27;;;;;;;18.76;77.73;101489.22;5028958;28;20060;-66
2023/10/04 08:40:23;;;;;;;1.95;0.70;;;;;;;18.72;77.70;101513.78;5025783;28;20053;-66
2023/10/04 08:42:50;;;;;;;2.63;0.75;;;;;;;18.80;77.84;101514.56;5027633;28;20460;-67
2023/10/04 08:45:29;;;;;;;5.32;0.77;;;;;;;18.87;78.52;101512.63;5029547;28;20116;-66
2023/10/04 08:47:56;;;;;;;3.13;0.57;;;;;;;19.11;77.95;101516.53;5041462;28;20632;-66
2023/10/04 08:50:45;;;;;;;2.50;0.55;;;;;;;19.23;77.51;101509.88;5028294;28;20482;-65
2023/10/04 08:53:34;;;;;;;3.25;0.77;;;;;;;19.45;76.88;101509.47;5025851;28;20033;-66
2023/10/04 08:56:05;;;;;;;4.53;0.57;;;;;;;19.62;75.94;101505.16;5022201;28;20037;-66
2023/10/04 08:58:32;;;;;;;2.50;0.52;;;;;;;19.74;75.35;101518.41;5028486;28;20581;-66
2023/10/04 09:00:58;;;;;;;2.38;0.47;;;;;;;19.91;73.81;101505.84;5012192;28;20053;-66
2023/10/04 09:03:24;;;;;;;5.13;0.68;;;;;;;19.97;73.15;101505.03;5025207;28;20102;-65
2023/10/04 09:05:52;;;;;;;1.80;0.50;;;;;;;20.11;72.48;101510.41;5030082;28;20033;-66
2023/10/04 09:08:18;;;;;;;2.42;0.45;;;;;;;20.21;72.13;101519.81;5027947;28;20065;-66
2023/10/04 09:10:44;;;;;;;3.08;0.30;;;;;;;20.24;71.88;101513.53;5026113;28;20486;-66
2023/10/04 09:13:10;;;;;;;4.45;0.77;;;;;;;20.23;70.95;101520.94;5026227;28;20033;-65
2023/10/04 09:15:37;;;;;;;2.97;0.57;;;;;;;20.20;71.10;101518.25;5027824;28;20040;-66
2023/10/04 09:18:07;;;;;;;2.00;0.68;;;;;;;20.27;70.86;101515.44;5023560;28;20033;-66
2023/10/04 09:20:33;;;;;;;1.25;0.47;;;;;;;20.03;71.79;101494.47;5025805;28;20041;-66
2023/10/04 09:23:14;;;;;;;1.40;0.73;;;;;;;20.12;72.12;101508.47;5027571;28;20196;-65
2023/10/04 09:25:40;;;;;;;;;;;;;;;20.04;70.86;101504.22;5023559;28;20033;-66
2023/10/04 09:28:09;;;;;;;3.53;1.27;;;;;;;19.93;71.67;101503.47;5032696;28;20496;-65
2023/10/04 09:30:36;;;;;;;1.77;0.68;;;;;;;20.05;71.54;101494.84;5024509;28;20037;-66
2023/10/04 09:33:20;;;;;;;3.50;0.75;;;;;;;20.10;71.93;101499.88;5020756;28;20060;-66
2023/10/04 09:35:45;;;;;;;4.40;0.88;;;;;;;20.13;72.16;101508.06;5026073;28;20067;-66
2023/10/04 09:38:15;;;;;;;6.00;0.57;;;;;;;20.27;71.69;101509.97;5021241;28;20815;-66
2023/10/04 09:40:55;;;;;;;3.95;0.65;;;;;;;20.41;70.67;101520.84;5025234;28;20061;-66
2023/10/04 09:43:37;;;;;;;2.67;0.45;;;;;;;20.56;70.31;101519.56;5023957;28;20651;-66
2023/10/04 09:46:06;;;;;;;1.23;0.35;;;;;;;20.67;69.99;101520.31;5021177;28;20545;-65
2023/10/04 09:48:33;;;;;;;1.33;0.38;;;;;;;20.86;68.70;101525.25;5028206;28;20132;-65
2023/10/04 09:51:00;;;;;;;4.07;0.52;;;;;;;20.93;68.11;101527.91;5025144;28;20036;-65
2023/10/04 09:53:25;;;;;;;3.88;0.73;;;;;;;20.84;68.79;101530.34;5024812;28;20030;-66
2023/10/04 09:55:54;;;;;;;5.97;0.80;;;;;;;20.91;68.87;101535.75;5024429;28;20034;-65
2023/10/04 09:58:24;;;;;;;3.70;0.70;;;;;;;20.93;68.72;101540.81;5025818;28;20040;-66
2023/10/04 10:00:52;;;;;;;5.47;0.98;;;;;;;20.92;68.47;101533.81;5025490;28;20041;-66
2023/10/04 10:03:26;;;;;;;4.38;0.57;;;;;;;21.00;67.07;101527.84;5022548;28;20022;-66
2023/10/04 10:05:56;;;;;;;1.15;0.75;;;;;;;20.93;67.04;101533.41;5027133;28;20029;-66
2023/10/04 10:08:31;;;;;;;1.00;0.40;;;;;;;20.95;67.86;101543.94;5031582;28;20041;-67
2023/10/04 10:11:00;;;;;;;0.98;0.60;;;;;;;20.98;67.24;101535.69;5030790;28;20104;-67
2023/10/04 10:13:26;;;;;;;5.88;0.63;;;;;;;20.98;67.32;101543.16;5027472;28;20022;-66
2023/10/04 10:15:53;;;;;;;1.80;0.40;;;;;;;20.85;67.44;101551.06;5030428;28;20040;-67
2023/10/04 10:18:20;;;;;;;1.42;0.73;;;;;;;20.85;66.06;101553.81;5035047;28;20029;-67
2023/10/04 10:20:46;;;;;;;3.05;0.50;;;;;;;20.89;65.78;101554.56;5030224;28;20034;-67
2023/10/04 10:23:15;;;;;;;3.38;1.10;;;;;;;20.92;65.54;101572.94;5030725;28;20033;-67
2023/10/04 10:26:19;;;;;;;1.83;0.47;;;;;;;20.75;65.51;101560.13;5032466;28;20508;-66
2023/10/04 10:28:47;;;;;;;3.70;0.52;;;;;;;20.82;66.42;101562.84;5030891;28;20114;-66
2023/10/04 10:31:21;;;;;;;3.80;1.45;;;;;;;20.79;66.53;101560.13;5031673;28;20141;-66
2023/10/04 10:33:47;;;;;;;2.08;0.73;;;;;;;20.75;66.45;101557.38;5030912;28;20029;-66
2023/10/04 10:36:39;;;;;;;4.38;0.88;;;;;;;20.63;67.09;101564.13;5031691;28;20406;-67
2023/10/04 10:39:21;;;;;;;2.10;0.50;;;;;;;20.57;67.58;101560.25;5025270;28;20128;-66
2023/10/04 10:41:46;;;;;;;4.35;0.65;;;;;;;20.76;67.39;101563.66;5031553;28;20257;-67
2023/10/04 10:44:12;;;;;;;1.27;0.60;;;;;;;20.88;65.54;101569.44;5025127;28;20041;-67
2023/10/04 10:46:56;;;;;;;6.40;0.50;;;;;;;20.94;64.86;101576.06;5026608;28;20104;-67
2023/10/04 10:49:40;;;;;;;3.08;0.60;;;;;;;21.02;64.63;101574.81;5026415;28;20052;-67
2023/10/04 10:52:26;;;;;;;10.80;1.70;;;;;;;20.90;65.20;101588.22;5026157;28;21616;-67
2023/10/04 10:54:53;;;;;;;1.52;0.68;;;;;;;20.81;64.92;101579.66;5030158;28;20029;-67
2023/10/04 10:57:23;;;;;;;2.45;0.82;;;;;;;20.92;65.15;101580.38;5024281;28;20028;-67
2023/10/04 10:59:53;;;;;;;2.17;0.45;;;;;;;20.98;65.08;101573.28;5029571;28;20037;-67
2023/10/04 11:02:20;;;;;;;5.30;0.77;;;;;;;20.99;65.38;101591.28;5029401;28;20022;-67
2023/10/04 11:04:46;;;;;;;3.22;0.70;;;;;;;21.00;65.18;101579.91;5027987;28;20045;-67
2023/10/04 11:07:11;;;;;;;4.13;0.90;;;;;;;21.00;64.37;101584.63;5027572;28;20018;-67
2023/10/04 11:09:39;;;;;;;3.45;0.57;;;;;;;20.90;64.58;101583.53;5028594;28;20123;-66
2023/10/04 11:12:09;;;;;;;1.20;0.60;;;;;;;20.81;65.55;101576.94;5037406;28;20774;-66
2023/10/04 11:14:38;;;;;;;3.47;0.98;;;;;;;20.83;66.06;101580.81;5026693;28;20033;-67
2023/10/04 11:17:06;;;;;;;3.42;1.15;;;;;;;20.81;66.86;101577.69;5023803;28;20102;-67
2023/10/04 11:19:32;;;;;;;3.80;0.40;;;;;;;20.85;66.99;101567.50;5029518;28;20117;-67
2023/10/04 11:21:59;;;;;;;0.93;0.70;;;;;;;21.02;65.72;101563.88;5027163;28;20524;-67
2023/10/04 11:24:26;;;;;;;3.75;1.00;;;;;;;21.27;65.23;101561.69;5026602;28;20033;-66
2023/10/04 11:26:56;;;;;;;1.50;0.85;;;;;;;21.31;64.20;101559.72;5014022;28;20045;-66
2023/10/04 11:29:23;;;;;;;3.40;0.70;;;;;;;21.44;63.09;101555.31;5030195;28;20055;-67
2023/10/04 11:31:49;;;;;;;1.30;0.55;;;;;;;21.50;62.22;101550.16;5030407;28;20087;-66
2023/10/04 11:34:15;;;;;;;3.53;0.60;;;;;;;21.52;63.75;101551.28;5029865;28;20080;-66